Time;durP1;ratioP1;P1;durP2;ratioP2;P2;SDS_P1;SDS_P2;PMS_P1;PMS_P2;Temp;Humidity;BMP_temperature;BMP_pressure;BME280_temperature;BME280_humidity;BME280_pressure;Samples;Min_cycle;Max_cycle;Signal;HPM_P1;HPM_P2
2022/10/04 00:01:55;;;;;;;27.83;13.32;;;12.70;99.90;;;;;;5092660;28;20055;-63
2022/10/04 00:04:39;;;;;;;31.20;14.15;;;11.90;99.90;;;;;;5092333;28;20083;-62
2022/10/04 00:07:05;;;;;;;28.23;12.85;;;12.10;99.90;;;;;;5092572;28;20055;-62
2022/10/04 00:09:39;;;;;;;28.02;14.13;;;12.30;99.90;;;;;;5091121;28;20862;-62
2022/10/04 00:12:06;;;;;;;28.25;13.20;;;12.00;99.90;;;;;;5092442;28;20549;-62
2022/10/04 00:14:38;;;;;;;23.50;12.95;;;12.40;99.90;;;;;;5092421;28;20109;-67
2022/10/04 00:17:12;;;;;;;27.27;12.57;;;12.30;99.90;;;;;;5092408;28;20062;-65
2022/10/04 00:19:43;;;;;;;24.23;12.07;;;12.00;99.90;;;;;;5092031;28;20101;-63
2022/10/04 00:22:12;;;;;;;25.58;12.27;;;12.10;99.90;;;;;;5092390;28;20083;-62
2022/10/04 00:25:06;;;;;;;32.50;12.68;;;12.10;99.90;;;;;;5092231;28;20135;-63
2022/10/04 00:27:33;;;;;;;25.23;12.50;;;12.10;99.90;;;;;;5092221;28;20105;-67
2022/10/04 00:57:46;;;;;;;29.88;13.45;;;11.60;99.90;;;;;;5324041;22;20059;-63
2022/10/04 01:00:18;;;;;;;32.15;13.32;;;12.70;99.90;;;;;;5064958;28;20056;-68
2022/10/04 01:03:20;;;;;;;27.65;13.55;;;11.80;99.90;;;;;;5077503;28;20105;-70
2022/10/04 01:05:56;;;;;;;19.50;13.50;;;11.80;99.90;;;;;;5024061;28;20117;-71
2022/10/04 01:08:27;;;;;;;27.65;14.20;;;11.80;99.90;;;;;;5059692;28;20418;-71
2022/10/04 01:11:02;;;;;;;24.25;13.10;;;11.70;99.90;;;;;;5059805;28;20169;-71
2022/10/04 01:13:36;;;;;;;30.75;15.07;;;11.90;99.90;;;;;;5076616;28;20496;-71
2022/10/04 01:16:06;;;;;;;31.05;15.20;;;11.90;99.90;;;;;;5076561;28;20134;-71
2022/10/04 01:18:34;;;;;;;32.60;15.98;;;11.60;99.90;;;;;;5076477;28;20055;-71
2022/10/04 01:21:18;;;;;;;28.85;16.13;;;12.20;99.90;;;;;;5076359;28;20052;-71
2022/10/04 01:23:51;;;;;;;32.88;15.75;;;12.00;99.90;;;;;;5076413;28;20044;-71
2022/10/04 01:26:25;;;;;;;36.83;16.73;;;11.90;99.90;;;;;;5058408;28;20079;-71
2022/10/04 01:28:52;;;;;;;30.92;17.00;;;11.80;99.90;;;;;;5076168;28;20056;-71
2022/10/04 01:31:18;;;;;;;33.63;17.52;;;12.10;99.90;;;;;;5076268;28;20048;-71
2022/10/04 01:33:45;;;;;;;35.28;16.42;;;11.60;99.90;;;;;;5076229;28;20071;-71
2022/10/04 01:36:11;;;;;;;38.42;17.48;;;12.40;99.90;;;;;;5059054;28;20376;-71
2022/10/04 01:38:36;;;;;;;40.03;18.45;;;11.50;99.90;;;;;;5076063;28;20042;-71
2022/10/04 01:41:04;;;;;;;32.10;16.95;;;12.00;99.90;;;;;;5076104;28;20044;-70
2022/10/04 01:43:36;;;;;;;33.45;17.45;;;11.70;99.90;;;;;;5076015;28;20052;-71
2022/10/04 01:46:12;;;;;;;33.78;18.35;;;11.80;99.90;;;;;;5076011;28;20106;-70
2022/10/04 01:48:42;;;;;;;33.80;17.92;;;13.00;99.90;;;;;;5075838;28;20045;-71
2022/10/04 01:51:25;;;;;;;35.13;17.70;;;11.40;99.90;;;;;;5075955;28;20127;-70
2022/10/04 01:54:18;;;;;;;40.53;17.75;;;11.60;99.90;;;;;;5075939;28;20136;-71
2022/10/04 01:56:49;;;;;;;31.15;17.10;;;12.00;99.90;;;;;;5076053;28;20056;-71
2022/10/04 01:59:25;;;;;;;33.35;16.27;;;11.70;99.90;;;;;;5075776;28;20117;-71
2022/10/04 02:02:21;;;;;;;34.42;17.35;;;11.60;99.90;;;;;;5057452;28;20059;-71
2022/10/04 02:04:53;;;;;;;28.85;16.00;;;11.60;99.90;;;;;;5071080;28;20056;-71
2022/10/04 02:07:20;;;;;;;35.67;15.80;;;11.60;99.90;;;;;;5076133;28;20046;-71
2022/10/04 02:09:49;;;;;;;34.67;16.85;;;11.60;99.90;;;;;;5075462;28;20140;-71
2022/10/04 02:12:17;;;;;;;33.83;16.08;;;11.70;99.90;;;;;;5075973;28;20040;-70
2022/10/04 02:14:51;;;;;;;28.25;15.43;;;11.80;99.90;;;;;;5075479;28;20135;-71
2022/10/04 02:17:23;;;;;;;36.42;16.15;;;11.50;99.90;;;;;;5075605;28;20119;-71
2022/10/04 02:19:50;;;;;;;31.15;16.35;;;11.70;99.90;;;;;;5075958;28;20073;-71
2022/10/04 02:22:16;;;;;;;33.20;16.70;;;11.40;99.90;;;;;;5075321;28;20053;-71
2022/10/04 02:24:46;;;;;;;26.88;17.08;;;11.70;99.90;;;;;;5057396;28;20044;-70
2022/10/04 02:27:12;;;;;;;33.78;17.70;;;12.50;99.90;;;;;;5074841;28;20506;-70
2022/10/04 02:29:38;;;;;;;34.85;17.27;;;11.40;99.90;;;;;;5075389;28;20350;-70
2022/10/04 02:34:54;;;;;;;31.58;17.38;;;11.70;99.90;;;;;;5075883;28;20056;-70
2022/10/04 02:37:26;;;;;;;32.60;17.15;;;11.60;99.90;;;;;;5057598;28;20041;-71
2022/10/04 02:40:14;;;;;;;28.20;16.90;;;11.60;99.90;;;;;;5074936;28;20109;-70
2022/10/04 02:42:59;;;;;;;33.28;17.05;;;11.60;99.90;;;;;;5057284;28;20045;-70
2022/10/04 02:45:39;;;;;;;38.30;17.35;;;11.50;99.90;;;;;;5074930;28;20131;-70
2022/10/04 02:48:28;;;;;;;38.03;17.10;;;11.70;99.90;;;;;;5074771;28;20041;-70
2022/10/04 02:50:59;;;;;;;32.03;16.60;;;11.40;99.90;;;;;;5059613;28;20488;-71
2022/10/04 02:53:53;;;;;;;38.25;17.45;;;11.50;99.90;;;;;;5057892;28;20068;-71
2022/10/04 02:56:21;;;;;;;43.63;17.23;;;11.20;99.90;;;;;;5074661;28;20507;-70
2022/10/04 02:58:47;;;;;;;38.13;18.05;;;11.00;99.90;;;;;;5074647;28;20048;-71
2022/10/04 03:01:42;;;;;;;30.92;17.35;;;11.10;99.90;;;;;;5074596;28;20045;-70
2022/10/04 03:04:11;;;;;;;36.30;17.58;;;11.00;99.90;;;;;;5065847;28;20086;-70
2022/10/04 03:06:37;;;;;;;32.17;16.10;;;11.90;99.90;;;;;;5074529;28;20476;-69
2022/10/04 03:09:04;;;;;;;40.38;17.73;;;11.10;99.90;;;;;;5074853;28;20123;-70
2022/10/04 03:11:34;;;;;;;30.73;16.38;;;11.10;99.90;;;;;;5074273;28;20116;-70
2022/10/04 03:14:04;;;;;;;34.03;15.80;;;10.90;99.90;;;;;;5074164;28;20049;-70
2022/10/04 03:16:39;;;;;;;36.72;15.75;;;11.00;99.90;;;;;;5074251;28;20549;-71
2022/10/04 03:19:06;;;;;;;25.77;15.52;;;11.30;99.90;;;;;;5074185;28;20040;-70
2022/10/04 03:21:34;;;;;;;29.50;16.58;;;11.10;99.90;;;;;;5074084;28;20045;-70
2022/10/04 03:24:02;;;;;;;29.67;15.35;;;11.00;99.90;;;;;;5073765;28;20518;-70
2022/10/04 03:26:30;;;;;;;33.78;16.65;;;11.10;99.90;;;;;;5074072;28;20098;-70
2022/10/04 03:28:57;;;;;;;30.55;15.20;;;10.90;99.90;;;;;;5074727;28;20048;-70
2022/10/04 03:31:25;;;;;;;32.30;15.95;;;11.00;99.90;;;;;;5073946;28;20055;-69
2022/10/04 03:33:54;;;;;;;31.50;15.10;;;10.90;99.90;;;;;;5074491;28;20087;-70
2022/10/04 03:36:22;;;;;;;36.30;16.33;;;12.20;99.90;;;;;;5073888;28;20127;-70
2022/10/04 03:38:51;;;;;;;30.55;16.48;;;11.10;99.90;;;;;;5074338;28;20044;-70
2022/10/04 03:41:17;;;;;;;30.55;16.55;;;11.40;99.90;;;;;;5056175;28;20052;-70
2022/10/04 03:43:49;;;;;;;26.88;15.73;;;10.90;99.90;;;;;;5073756;28;20045;-70
2022/10/04 03:46:18;;;;;;;35.03;17.15;;;11.10;99.90;;;;;;5073664;28;20350;-70
2022/10/04 03:48:49;;;;;;;32.40;15.90;;;11.00;99.90;;;;;;5073510;28;20041;-70
2022/10/04 03:51:25;;;;;;;32.75;16.70;;;11.20;99.90;;;;;;5073628;28;20089;-69
2022/10/04 03:54:00;;;;;;;25.98;16.00;;;11.90;99.90;;;;;;5055698;28;20051;-70
2022/10/04 03:56:32;;;;;;;40.95;16.58;;;11.20;99.90;;;;;;5073513;28;20123;-70
2022/10/04 03:59:01;;;;;;;34.22;17.35;;;11.00;99.90;;;;;;5073578;28;20048;-70
2022/10/04 04:01:48;;;;;;;33.42;17.33;;;11.00;99.90;;;;;;5073465;28;20048;-69
2022/10/04 04:04:35;;;;;;;30.05;17.63;;;10.70;99.90;;;;;;5073129;28;20484;-70
2022/10/04 04:07:21;;;;;;;32.78;17.10;;;11.10;99.90;;;;;;5055530;28;20137;-70
2022/10/04 04:10:00;;;;;;;33.53;17.80;;;10.80;99.90;;;;;;5073327;28;20128;-70
2022/10/04 04:13:03;;;;;;;36.15;18.50;;;10.70;99.90;;;;;;5056138;28;20044;-69
2022/10/04 04:15:32;;;;;;;37.25;18.42;;;11.00;99.90;;;;;;5034793;28;20139;-70
2022/10/04 04:18:09;;;;;;;36.90;18.70;;;11.00;99.90;;;;;;5055776;28;20481;-70
2022/10/04 04:20:42;;;;;;;32.63;17.58;;;11.00;99.90;;;;;;5073760;28;20048;-71
2022/10/04 04:23:31;;;;;;;41.60;18.40;;;10.70;99.90;;;;;;5055374;28;20059;-69
2022/10/04 04:26:12;;;;;;;37.75;17.80;;;10.80;99.90;;;;;;5056220;28;20377;-70
2022/10/04 04:28:43;;;;;;;34.60;18.50;;;10.80;99.90;;;;;;5055606;28;20058;-70
2022/10/04 04:31:22;;;;;;;34.70;17.95;;;10.80;99.90;;;;;;5073886;28;20049;-69
2022/10/04 04:34:14;;;;;;;32.85;18.63;;;10.70;99.90;;;;;;5073107;28;20045;-70
2022/10/04 04:36:40;;;;;;;33.08;18.38;;;10.80;99.90;;;;;;5073104;28;20499;-70
2022/10/04 04:42:11;;;;;;;45.75;19.02;;;11.00;99.90;;;;;;5072992;28;20095;-70
2022/10/04 04:44:43;;;;;;;34.50;18.33;;;10.70;99.90;;;;;;5055664;28;20050;-69
2022/10/04 04:47:20;;;;;;;31.70;17.85;;;10.70;99.90;;;;;;5073070;28;20045;-70
2022/10/04 04:49:46;;;;;;;35.40;18.10;;;10.90;99.90;;;;;;5073485;28;20040;-69
2022/10/04 04:52:18;;;;;;;39.15;18.30;;;10.80;99.90;;;;;;5055243;28;20433;-69
2022/10/04 04:54:46;;;;;;;34.00;16.77;;;10.70;99.90;;;;;;5055190;28;20051;-69
2022/10/04 04:57:17;;;;;;;28.98;17.27;;;12.00;99.90;;;;;;5073315;28;20143;-70
2022/10/04 04:59:51;;;;;;;41.58;17.35;;;10.60;99.90;;;;;;5072917;28;20052;-70
2022/10/04 05:02:35;;;;;;;33.63;17.40;;;11.40;99.90;;;;;;5072945;28;20056;-70
2022/10/04 05:05:21;;;;;;;33.85;16.73;;;10.60;99.90;;;;;;5072766;28;20064;-70
2022/10/04 05:07:47;;;;;;;35.55;18.00;;;10.30;99.90;;;;;;5038367;28;20063;-70
2022/10/04 05:10:30;;;;;;;34.22;18.42;;;10.40;99.90;;;;;;5055033;28;20507;-70
2022/10/04 05:13:00;;;;;;;37.00;18.27;;;11.20;99.90;;;;;;5072740;28;20128;-70
2022/10/04 05:15:30;;;;;;;24.77;17.83;;;10.20;99.90;;;;;;5073276;28;20128;-70
2022/10/04 05:17:56;;;;;;;32.60;17.35;;;10.90;99.90;;;;;;5054971;28;20481;-70
2022/10/04 05:20:22;;;;;;;30.20;16.75;;;10.40;99.90;;;;;;5072295;28;20101;-70
2022/10/04 05:22:49;;;;;;;32.50;17.92;;;10.50;99.90;;;;;;5072587;28;20044;-70
2022/10/04 05:25:30;;;;;;;30.63;17.83;;;10.40;99.90;;;;;;5073031;28;20055;-70
2022/10/04 05:27:56;;;;;;;37.05;18.45;;;10.40;99.90;;;;;;5054820;28;20484;-69
2022/10/04 05:30:28;;;;;;;33.00;18.40;;;10.40;99.90;;;;;;5072599;28;20045;-70
2022/10/04 05:33:03;;;;;;;31.80;18.10;;;10.20;99.90;;;;;;5054911;28;20132;-70
2022/10/04 05:35:53;;;;;;;30.33;17.93;;;10.20;99.90;;;;;;5055567;28;20061;-70
2022/10/04 05:38:39;;;;;;;35.58;18.45;;;10.30;99.90;;;;;;5076455;28;20045;-69
2022/10/04 05:41:18;;;;;;;31.30;17.50;;;9.90;99.90;;;;;;5076083;28;20040;-69
2022/10/04 05:43:46;;;;;;;32.25;18.00;;;10.00;99.90;;;;;;5076517;28;20055;-69
2022/10/04 05:46:22;;;;;;;40.20;19.55;;;10.10;99.90;;;;;;5058090;28;20087;-69
2022/10/04 05:48:53;;;;;;;38.60;19.23;;;9.80;99.90;;;;;;5076414;28;20411;-69
2022/10/04 05:51:31;;;;;;;35.08;18.98;;;11.00;99.90;;;;;;5075897;28;20476;-69
2022/10/04 05:54:00;;;;;;;39.80;20.38;;;10.00;99.90;;;;;;5058324;28;20354;-69
2022/10/04 05:56:34;;;;;;;34.35;19.75;;;10.30;99.90;;;;;;5075835;28;20051;-69
2022/10/04 05:59:24;;;;;;;35.30;20.20;;;10.10;99.90;;;;;;5076228;28;20044;-69
2022/10/04 06:01:49;;;;;;;37.00;19.63;;;10.30;99.90;;;;;;5075722;28;20084;-69
2022/10/04 06:04:31;;;;;;;38.95;19.75;;;10.80;99.90;;;;;;5042031;28;20083;-69
2022/10/04 06:07:03;;;;;;;35.70;19.35;;;10.20;99.90;;;;;;5075687;28;20055;-69
2022/10/04 06:09:56;;;;;;;43.88;20.08;;;10.00;99.90;;;;;;5074766;28;20134;-69
2022/10/04 06:12:42;;;;;;;37.40;20.42;;;9.90;99.90;;;;;;5075427;28;20044;-69
2022/10/04 06:15:26;;;;;;;33.00;20.05;;;11.20;99.90;;;;;;5057885;28;20060;-69
2022/10/04 06:18:16;;;;;;;37.28;20.35;;;10.20;99.90;;;;;;5075534;28;20063;-69
2022/10/04 06:21:08;;;;;;;34.45;21.13;;;10.30;99.90;;;;;;5075812;28;20049;-70
2022/10/04 06:23:42;;;;;;;37.75;20.67;;;9.90;99.90;;;;;;5058061;28;20105;-70
2022/10/04 06:26:12;;;;;;;36.33;21.05;;;10.30;99.90;;;;;;5075513;28;20040;-70
2022/10/04 06:28:42;;;;;;;35.60;20.88;;;10.10;99.90;;;;;;5075015;28;20044;-69
2022/10/04 06:31:52;;;;;;;39.50;21.75;;;10.20;99.90;;;;;;5075033;28;20088;-69
2022/10/04 06:34:35;;;;;;;42.97;22.60;;;10.10;99.90;;;;;;5075125;28;20044;-69
2022/10/04 06:37:17;;;;;;;37.42;22.00;;;10.30;99.90;;;;;;5075575;28;20040;-69
2022/10/04 06:40:13;;;;;;;39.92;22.35;;;10.40;99.90;;;;;;5075670;28;20051;-69
2022/10/04 06:42:51;;;;;;;43.20;22.85;;;10.50;99.90;;;;;;5075348;28;20439;-69
2022/10/04 06:45:16;;;;;;;43.40;22.95;;;10.70;99.90;;;;;;5057670;28;20044;-70
2022/10/04 06:47:54;;;;;;;41.05;22.17;;;10.90;99.90;;;;;;5057865;28;20072;-70
2022/10/04 06:50:32;;;;;;;40.92;23.50;;;10.80;99.90;;;;;;5074799;28;20060;-68
2022/10/04 06:53:16;;;;;;;40.38;23.83;;;11.00;99.90;;;;;;5057250;28;20048;-69
2022/10/04 06:56:10;;;;;;;37.63;23.17;;;11.10;99.90;;;;;;5074928;28;20049;-69
2022/10/04 06:58:56;;;;;;;34.58;22.38;;;11.10;99.90;;;;;;5075159;28;20045;-67
2022/10/04 07:01:33;;;;;;;36.33;22.75;;;11.30;99.90;;;;;;5074470;28;20052;-67
2022/10/04 07:03:59;;;;;;;34.45;21.60;;;11.80;99.90;;;;;;5074400;28;20044;-69
2022/10/04 07:06:35;;;;;;;34.85;20.83;;;11.50;99.90;;;;;;5074471;28;20319;-69
2022/10/04 07:09:04;;;;;;;37.28;22.48;;;11.40;99.90;;;;;;5057242;28;20044;-69
2022/10/04 07:12:09;;;;;;;41.25;21.73;;;11.50;99.90;;;;;;5074252;28;20048;-70
2022/10/04 07:14:43;;;;;;;35.22;22.00;;;11.10;99.90;;;;;;4973183;28;20042;-70
2022/10/04 07:17:18;;;;;;;33.97;22.30;;;12.00;99.90;;;;;;5044241;28;20060;-69
2022/10/04 07:19:51;;;;;;;42.78;22.77;;;11.40;99.90;;;;;;5073423;28;20051;-70
2022/10/04 07:22:30;;;;;;;32.00;22.52;;;11.90;99.90;;;;;;5073846;28;20146;-68
2022/10/04 07:25:04;;;;;;;38.90;21.63;;;11.70;99.90;;;;;;5073758;28;20088;-76
2022/10/04 07:29:19;;;;;;;36.72;22.63;;;11.80;99.90;;;;;;5074008;28;20052;-72
2022/10/04 07:30:40;;;;;;;36.22;21.13;;;12.40;99.90;;;;;;5074090;28;20052;-69
2022/10/04 07:33:11;;;;;;;34.85;19.35;;;12.10;99.90;;;;;;5073798;28;20041;-69
2022/10/04 07:35:48;;;;;;;35.58;20.23;;;12.30;99.90;;;;;;5073758;28;20040;-69
2022/10/04 07:38:16;;;;;;;33.05;19.80;;;12.10;99.90;;;;;;5073716;28;20036;-68
2022/10/04 07:41:15;;;;;;;33.08;19.27;;;12.00;99.90;;;;;;5073614;28;20059;-73
2022/10/04 07:44:14;;;;;;;35.03;19.85;;;12.60;99.90;;;;;;5073229;28;20477;-74
2022/10/04 07:46:46;;;;;;;34.22;19.15;;;12.30;99.90;;;;;;5073531;28;20045;-71
2022/10/04 07:49:18;;;;;;;37.08;19.42;;;12.20;99.90;;;;;;5073478;28;20044;-70
2022/10/04 07:51:43;;;;;;;29.35;19.00;;;12.30;99.90;;;;;;5073501;28;20491;-73
2022/10/04 07:54:30;;;;;;;34.75;19.30;;;12.30;99.90;;;;;;5073367;28;20048;-70
2022/10/04 07:57:07;;;;;;;33.55;19.92;;;12.00;99.90;;;;;;5039075;28;20480;-67
2022/10/04 07:59:44;;;;;;;32.08;18.60;;;12.20;99.90;;;;;;5073162;28;20049;-70
2022/10/04 08:02:28;;;;;;;32.20;19.67;;;12.00;99.90;;;;;;5073406;28;20052;-77
2022/10/04 08:05:06;;;;;;;34.17;20.02;;;11.90;99.90;;;;;;5073177;28;20056;-72
2022/10/04 08:07:59;;;;;;;36.78;21.45;;;11.90;99.90;;;;;;5073804;28;20063;-69
2022/10/04 08:10:45;;;;;;;35.05;20.13;;;11.60;99.90;;;;;;5073247;28;20047;-70
2022/10/04 08:13:37;;;;;;;30.05;21.00;;;12.00;99.90;;;;;;5073238;28;20127;-71
2022/10/04 08:16:25;;;;;;;38.40;21.00;;;12.20;99.90;;;;;;5073272;28;20083;-69
2022/10/04 08:19:00;;;;;;;33.58;20.98;;;12.30;99.90;;;;;;5073547;28;20535;-68
2022/10/04 08:21:39;;;;;;;38.13;20.13;;;12.50;99.90;;;;;;5073355;28;20056;-69
2022/10/04 08:24:17;;;;;;;29.27;18.63;;;12.70;99.90;;;;;;5073219;28;20386;-69
2022/10/04 08:26:58;;;;;;;25.25;17.35;;;12.80;99.90;;;;;;5073743;28;20045;-70
2022/10/04 08:29:46;;;;;;;31.67;18.08;;;13.10;99.90;;;;;;5073877;28;20049;-70
2022/10/04 08:32:40;;;;;;;27.55;17.17;;;13.20;99.90;;;;;;5073187;28;20106;-71
2022/10/04 08:35:21;;;;;;;28.95;16.65;;;13.20;99.90;;;;;;5073099;28;20495;-70
2022/10/04 08:38:08;;;;;;;29.83;16.40;;;13.40;99.90;;;;;;5073119;28;20146;-69
2022/10/04 08:40:46;;;;;;;20.77;14.68;;;13.50;99.90;;;;;;5056229;28;20052;-69
2022/10/04 08:43:30;;;;;;;29.15;15.30;;;13.70;99.90;;;;;;5073092;28;20052;-70
2022/10/04 08:46:18;;;;;;;34.13;14.90;;;13.70;99.90;;;;;;5072975;28;20078;-70
2022/10/04 08:49:02;;;;;;;22.15;13.43;;;13.80;99.90;;;;;;5073458;28;20048;-70
2022/10/04 08:51:30;;;;;;;27.17;14.10;;;13.90;99.90;;;;;;5073650;28;20049;-70
2022/10/04 08:54:21;;;;;;;21.27;13.38;;;14.20;99.90;;;;;;5072928;28;20104;-71
2022/10/04 08:57:13;;;;;;;23.55;13.18;;;13.80;99.90;;;;;;5073352;28;20064;-71
2022/10/04 09:00:06;;;;;;;23.70;12.80;;;13.90;99.90;;;;;;5072915;28;20053;-70
2022/10/04 09:02:47;;;;;;;18.35;12.43;;;14.20;99.90;;;;;;5072629;28;20514;-71
2022/10/04 09:05:31;;;;;;;21.38;13.88;;;14.30;99.90;;;;;;5072805;28;20048;-70
2022/10/04 09:08:33;;;;;;;26.35;13.52;;;14.50;99.90;;;;;;5073190;28;20443;-70
2022/10/04 09:11:28;;;;;;;24.80;12.88;;;14.60;99.90;;;;;;5074050;28;20114;-71
2022/10/04 09:14:22;;;;;;;24.73;14.20;;;14.60;99.90;;;;;;5076637;28;20053;-69
2022/10/04 09:16:53;;;;;;;25.98;13.32;;;14.50;99.90;;;;;;5066813;28;20067;-68
2022/10/04 09:19:22;;;;;;;20.77;11.95;;;14.80;99.90;;;;;;5077336;28;20048;-70
2022/10/04 09:22:16;;;;;;;19.50;11.93;;;14.60;99.90;;;;;;5076734;28;20049;-70
2022/10/04 09:24:51;;;;;;;24.92;12.35;;;14.60;99.90;;;;;;5076500;28;20052;-69
2022/10/04 09:27:38;;;;;;;21.75;11.82;;;14.70;99.90;;;;;;5077220;28;20052;-67
2022/10/04 09:30:32;;;;;;;;;;;14.80;99.90;;;;;;5059044;28;20048;-67
2022/10/04 09:33:00;;;;;;;19.42;11.55;;;14.80;99.90;;;;;;5077438;28;19927;-69
2022/10/04 09:35:31;;;;;;;20.23;12.23;;;15.00;99.90;;;;;;5076226;28;20048;-70
2022/10/04 09:38:05;;;;;;;25.17;11.30;;;15.30;99.90;;;;;;5076436;28;20050;-69
2022/10/04 09:40:39;;;;;;;17.42;11.35;;;15.20;99.90;;;;;;5076212;28;20048;-70
2022/10/04 09:43:41;;;;;;;20.08;10.52;;;15.10;99.90;;;;;;5076898;28;20412;-69
2022/10/04 09:46:28;;;;;;;16.20;10.65;;;15.10;99.90;;;;;;5024576;28;20513;-69
2022/10/04 09:49:17;;;;;;;20.25;11.55;;;14.90;99.90;;;;;;5076012;28;20037;-70
2022/10/04 09:52:05;;;;;;;18.15;11.02;;;15.10;99.90;;;;;;5076023;28;20489;-69
2022/10/04 09:54:55;;;;;;;20.48;11.00;;;15.40;99.90;;;;;;5075931;28;20053;-71
2022/10/04 09:57:43;;;;;;;20.73;10.43;;;15.20;99.90;;;;;;5075763;28;20061;-69
2022/10/04 10:00:34;;;;;;;18.60;11.07;;;15.70;99.90;;;;;;5075883;28;20098;-69
2022/10/04 10:03:12;;;;;;;20.20;11.98;;;15.80;99.90;;;;;;5076055;28;20389;-70
2022/10/04 10:06:03;;;;;;;20.50;11.90;;;15.90;99.90;;;;;;5076301;28;20045;-69
2022/10/04 10:08:43;;;;;;;21.23;13.32;;;15.40;99.90;;;;;;5076100;28;20381;-69
2022/10/04 10:15:02;;;;;;;26.42;15.38;;;16.00;99.90;;;;;;5076064;28;20235;-67
2022/10/04 10:17:46;;;;;;;23.90;15.52;;;16.20;99.90;;;;;;5076348;28;20092;-69
2022/10/04 10:20:21;;;;;;;24.58;15.98;;;16.00;99.90;;;;;;5075638;28;20040;-70
2022/10/04 10:23:09;;;;;;;22.33;15.98;;;16.10;99.90;;;;;;5075176;28;20055;-70
2022/10/04 10:25:46;;;;;;;20.65;15.00;;;16.10;99.90;;;;;;5075350;28;20071;-69
2022/10/04 10:28:31;;;;;;;23.25;15.85;;;16.30;99.90;;;;;;5075269;28;20060;-70
2022/10/04 10:31:08;;;;;;;23.35;15.40;;;16.20;99.90;;;;;;5075321;28;20091;-70
2022/10/04 10:33:58;;;;;;;24.95;16.90;;;16.40;99.90;;;;;;5075313;28;20059;-70
2022/10/04 10:36:45;;;;;;;29.80;17.33;;;16.40;99.90;;;;;;5057842;28;20388;-69
2022/10/04 10:39:23;;;;;;;22.25;14.80;;;16.50;99.90;;;;;;5075367;28;20498;-69
2022/10/04 10:42:13;;;;;;;24.33;15.93;;;16.20;99.90;;;;;;5075961;28;20446;-69
2022/10/04 10:44:57;;;;;;;24.17;15.18;;;16.40;99.90;;;;;;5075604;28;20083;-70
2022/10/04 10:47:58;;;;;;;22.60;14.27;;;16.50;99.90;;;;;;5074961;28;20049;-70
2022/10/04 10:50:57;;;;;;;22.35;14.23;;;16.70;99.90;;;;;;5075208;28;20401;-69
2022/10/04 10:53:28;;;;;;;24.15;13.95;;;16.50;99.90;;;;;;5075329;28;20055;-69
2022/10/04 10:56:41;;;;;;;28.83;14.73;;;16.20;99.90;;;;;;5075253;28;20113;-70
2022/10/04 10:59:39;;;;;;;20.48;14.43;;;16.10;99.90;;;;;;4973698;28;20047;-70
2022/10/04 11:02:19;;;;;;;18.65;13.43;;;16.30;99.90;;;;;;5075199;28;20098;-71
2022/10/04 11:05:02;;;;;;;22.40;14.82;;;16.00;99.90;;;;;;5075381;28;20057;-70
2022/10/04 11:07:29;;;;;;;23.75;14.32;;;16.00;99.90;;;;;;5074613;28;20045;-70
2022/10/04 11:10:28;;;;;;;21.42;14.27;;;15.70;99.90;;;;;;5074936;28;20056;-71
2022/10/04 11:13:20;;;;;;;23.27;14.00;;;16.00;99.90;;;;;;5074517;28;20052;-70
2022/10/04 11:16:21;;;;;;;18.63;12.60;;;16.20;99.90;;;;;;5074364;28;20131;-70
2022/10/04 11:19:20;;;;;;;18.92;13.27;;;16.60;99.90;;;;;;5035457;28;20052;-70
2022/10/04 11:22:15;;;;;;;21.33;13.45;;;16.50;99.90;;;;;;5074481;28;20515;-71
2022/10/04 11:25:16;;;;;;;21.00;12.82;;;16.50;99.90;;;;;;5075025;28;20095;-71
2022/10/04 11:27:54;;;;;;;21.10;12.77;;;16.40;99.90;;;;;;5074952;28;20048;-69
2022/10/04 11:30:26;;;;;;;20.30;12.52;;;17.00;99.90;;;;;;5074104;28;20047;-70
2022/10/04 11:33:27;;;;;;;23.40;12.73;;;16.60;99.90;;;;;;5074282;28;20048;-70
2022/10/04 11:36:14;;;;;;;20.23;12.63;;;16.20;99.90;;;;;;5074518;28;20048;-71
2022/10/04 11:38:50;;;;;;;;;;;16.50;99.90;;;;;;5074396;28;20052;-71
2022/10/04 11:41:38;;;;;;;18.17;11.20;;;16.70;99.90;;;;;;5073936;28;20404;-69
2022/10/04 11:44:45;;;;;;;19.30;10.80;;;16.50;99.90;;;;;;5073871;28;20052;-69
2022/10/04 11:47:20;;;;;;;18.87;10.73;;;17.00;99.90;;;;;;5039757;28;20522;-71
2022/10/04 11:50:07;;;;;;;18.85;10.45;;;17.20;99.90;;;;;;5073659;28;20389;-72
2022/10/04 11:53:01;;;;;;;19.70;11.35;;;16.90;99.90;;;;;;5073699;28;20059;-69
2022/10/04 11:56:04;;;;;;;19.15;10.88;;;16.70;99.90;;;;;;5056758;28;20062;-71
2022/10/04 11:59:03;;;;;;;17.08;10.60;;;17.00;99.90;;;;;;5074233;28;20449;-71
2022/10/04 12:01:58;;;;;;;11.98;9.45;;;16.80;99.90;;;;;;5055993;28;20097;-69
2022/10/04 12:04:46;;;;;;;16.20;10.30;;;17.10;99.90;;;;;;5070344;28;20514;-70
2022/10/04 12:07:42;;;;;;;14.07;10.25;;;16.70;99.90;;;;;;5073756;28;20395;-71
2022/10/04 12:10:32;;;;;;;17.00;10.50;;;16.60;99.90;;;;;;5031727;28;20528;-68
2022/10/04 12:13:21;;;;;;;18.98;10.43;;;17.20;99.90;;;;;;5073174;28;20457;-69
2022/10/04 12:16:26;;;;;;;15.45;10.15;;;16.80;99.90;;;;;;5073536;28;20045;-70
2022/10/04 12:19:02;;;;;;;15.07;9.10;;;17.20;99.90;;;;;;5073444;28;20075;-70
2022/10/04 12:21:49;;;;;;;16.98;9.23;;;17.20;99.90;;;;;;5073081;28;20054;-71
2022/10/04 12:24:38;;;;;;;16.42;9.55;;;17.60;99.90;;;;;;5074047;28;20393;-69
2022/10/04 12:27:37;;;;;;;18.15;9.20;;;17.20;99.90;;;;;;5072496;28;20503;-69
2022/10/04 12:30:09;;;;;;;14.15;8.18;;;17.70;99.90;;;;;;5073199;28;20123;-71
2022/10/04 12:32:43;;;;;;;12.77;8.50;;;17.40;99.90;;;;;;5073256;28;20048;-71
2022/10/04 12:35:36;;;;;;;13.57;7.90;;;17.30;99.90;;;;;;5073885;28;20071;-71
2022/10/04 12:38:20;;;;;;;11.40;8.82;;;17.20;99.90;;;;;;5073703;28;20095;-70
2022/10/04 12:40:55;;;;;;;14.57;8.63;;;16.90;99.90;;;;;;5073710;28;20094;-69
2022/10/04 12:43:24;;;;;;;13.80;9.10;;;17.20;99.90;;;;;;5073148;28;20048;-70
2022/10/04 12:45:55;;;;;;;13.40;8.70;;;17.30;99.90;;;;;;5075895;28;20127;-71
2022/10/04 12:49:04;;;;;;;11.25;8.80;;;17.10;99.90;;;;;;5077710;28;20124;-71
2022/10/04 12:51:49;;;;;;;14.63;8.85;;;17.60;99.90;;;;;;5077970;28;20055;-72
2022/10/04 12:54:34;;;;;;;15.32;10.48;;;17.60;99.90;;;;;;5077638;28;20385;-70
2022/10/04 12:57:19;;;;;;;16.00;8.93;;;17.60;99.90;;;;;;5076679;28;20053;-69
2022/10/04 12:59:58;;;;;;;16.23;8.88;;;18.00;99.90;;;;;;5077044;28;20044;-70
2022/10/04 13:02:39;;;;;;;13.00;8.55;;;18.10;99.90;;;;;;5076965;28;20048;-69
2022/10/04 13:05:17;;;;;;;13.57;8.50;;;18.20;99.90;;;;;;5077661;28;20045;-71
2022/10/04 13:07:58;;;;;;;15.13;8.13;;;18.10;99.90;;;;;;5076276;28;20392;-75
2022/10/04 13:11:27;;;;;;;14.65;7.93;;;18.70;99.90;;;;;;5076611;28;20036;-73
2022/10/04 13:14:24;;;;;;;15.07;7.75;;;18.80;99.90;;;;;;4975545;28;20117;-73
2022/10/04 13:16:55;;;;;;;;;;;18.70;99.90;;;;;;4976034;28;20053;-75
2022/10/04 13:19:29;;;;;;;12.25;7.82;;;18.80;99.90;;;;;;5047753;28;19939;-74
2022/10/04 13:21:55;;;;;;;14.70;8.10;;;19.20;99.90;;;;;;5076376;28;20130;-72
2022/10/04 13:24:54;;;;;;;15.13;8.02;;;19.40;99.90;;;;;;5076337;28;20059;-74
2022/10/04 13:27:58;;;;;;;12.95;6.95;;;19.20;99.90;;;;;;5076259;28;20049;-71
2022/10/04 13:30:27;;;;;;;15.38;7.60;;;19.00;99.90;;;;;;5070621;28;20060;-72
2022/10/04 13:33:25;;;;;;;10.52;7.00;;;19.10;99.90;;;;;;5076341;28;20060;-72
2022/10/04 13:35:57;;;;;;;13.65;7.75;;;19.00;99.90;;;;;;5071862;28;20508;-73
2022/10/04 13:38:34;;;;;;;16.60;7.85;;;18.60;99.90;;;;;;5076411;28;20044;-71
2022/10/04 13:41:13;;;;;;;10.95;7.45;;;18.30;99.90;;;;;;5076653;28;20051;-72
2022/10/04 13:44:26;;;;;;;11.95;7.40;;;18.00;99.90;;;;;;5076190;28;20543;-72
2022/10/04 13:47:06;;;;;;;23.92;8.10;;;17.80;99.90;;;;;;4975223;28;20520;-72
2022/10/04 13:49:55;;;;;;;13.05;7.82;;;17.60;99.90;;;;;;5064579;28;20522;-72
2022/10/04 13:58:37;;;;;;;15.07;7.10;;;18.00;99.90;;;;;;5075456;28;20056;-71
2022/10/04 14:01:12;;;;;;;;;;;18.10;99.90;;;;;;5077120;28;20128;-72
2022/10/04 14:04:05;;;;;;;14.82;7.45;;;18.30;99.90;;;;;;5076383;28;19920;-73
2022/10/04 14:06:49;;;;;;;15.38;7.32;;;18.40;99.90;;;;;;5075719;28;20135;-75
2022/10/04 14:09:25;;;;;;;10.95;7.03;;;18.40;99.90;;;;;;5075741;28;20091;-73
2022/10/04 14:12:39;;;;;;;11.23;6.90;;;18.30;99.90;;;;;;5058174;28;20123;-73
2022/10/04 14:15:22;;;;;;;11.57;7.78;;;18.00;99.90;;;;;;5057600;28;20396;-73
2022/10/04 14:18:19;;;;;;;14.10;7.95;;;17.80;99.90;;;;;;5058745;28;20435;-72
2022/10/04 14:20:45;;;;;;;;;;;17.90;99.90;;;;;;5076041;28;20045;-73